createdAt,value
2022-09-18T00:01:32.304Z,100.00
2022-09-18T00:04:02.597Z,100.00
2022-09-18T00:06:38.305Z,100.00
2022-09-18T00:09:08.957Z,100.00
2022-09-18T00:11:39.010Z,100.00
2022-09-18T00:14:16.308Z,100.00
2022-09-18T00:16:43.391Z,100.00
2022-09-18T00:19:11.546Z,100.00
2022-09-18T00:21:44.455Z,100.00
2022-09-18T00:24:12.002Z,100.00
2022-09-18T00:26:40.022Z,100.00
2022-09-18T00:29:09.412Z,100.00
2022-09-18T00:31:38.233Z,100.00
2022-09-18T00:34:11.110Z,100.00
2022-09-18T00:36:40.545Z,100.00
2022-09-18T00:39:08.747Z,100.00
2022-09-18T00:41:40.953Z,100.00
2022-09-18T00:44:31.489Z,100.00
2022-09-18T00:47:12.541Z,100.00
2022-09-18T00:49:51.313Z,100.00
2022-09-18T00:52:23.541Z,100.00
2022-09-18T00:54:55.147Z,100.00
2022-09-18T00:57:30.277Z,100.00
2022-09-18T00:59:58.477Z,100.00
2022-09-18T01:02:25.183Z,100.00
2022-09-18T01:04:53.353Z,100.00
2022-09-18T01:07:47.948Z,100.00
2022-09-18T01:10:48.213Z,100.00
2022-09-18T01:13:50.921Z,100.00
2022-09-18T01:16:45.139Z,100.00
2022-09-18T01:19:26.932Z,100.00
2022-09-18T01:22:31.185Z,100.00
2022-09-18T01:25:16.957Z,100.00
2022-09-18T01:28:08.834Z,100.00
2022-09-18T01:30:41.840Z,100.00
2022-09-18T01:33:19.629Z,100.00
2022-09-18T01:35:52.838Z,100.00
2022-09-18T01:38:21.968Z,100.00
2022-09-18T01:40:54.348Z,100.00
2022-09-18T01:43:23.193Z,100.00
2022-09-18T01:45:54.496Z,100.00
2022-09-18T01:49:02.532Z,100.00
2022-09-18T01:51:52.685Z,100.00
2022-09-18T01:54:24.970Z,100.00
2022-09-18T01:57:10.447Z,100.00
2022-09-18T01:59:42.926Z,100.00
2022-09-18T02:02:17.297Z,100.00
2022-09-18T02:04:52.530Z,100.00
2022-09-18T02:07:29.816Z,100.00
2022-09-18T02:10:02.623Z,100.00
2022-09-18T02:12:33.145Z,100.00
2022-09-18T02:15:03.466Z,100.00
2022-09-18T02:17:39.461Z,100.00
2022-09-18T02:20:15.982Z,100.00
2022-09-18T02:22:46.548Z,100.00
2022-09-18T02:25:18.898Z,100.00
2022-09-18T02:27:47.711Z,100.00
2022-09-18T02:30:15.578Z,100.00
2022-09-18T02:32:42.234Z,100.00
2022-09-18T02:35:10.367Z,100.00
2022-09-18T02:38:01.186Z,100.00
2022-09-18T02:40:46.721Z,100.00
2022-09-18T02:43:32.258Z,100.00
2022-09-18T02:46:20.321Z,100.00
2022-09-18T02:49:15.232Z,100.00
2022-09-18T02:52:03.384Z,100.00
2022-09-18T02:54:47.169Z,100.00
2022-09-18T02:57:25.684Z,100.00
2022-09-18T03:00:01.839Z,100.00
2022-09-18T03:02:29.196Z,100.00
2022-09-18T03:04:56.223Z,100.00
2022-09-18T03:07:24.098Z,100.00
2022-09-18T03:09:50.723Z,100.00
2022-09-18T03:12:17.388Z,100.00
2022-09-18T03:14:44.110Z,100.00
2022-09-18T03:17:11.664Z,100.00
2022-09-18T03:19:38.483Z,100.00
2022-09-18T03:22:07.797Z,100.00
2022-09-18T03:24:38.124Z,100.00
2022-09-18T03:27:05.587Z,100.00
2022-09-18T03:29:32.237Z,100.00
2022-09-18T03:32:01.484Z,100.00
2022-09-18T03:34:29.357Z,100.00
2022-09-18T03:36:55.981Z,100.00
2022-09-18T03:39:22.709Z,100.00
2022-09-18T03:41:49.401Z,100.00
2022-09-18T03:44:16.031Z,100.00
2022-09-18T03:46:42.698Z,100.00
2022-09-18T03:49:09.355Z,100.00
2022-09-18T03:51:35.990Z,100.00
2022-09-18T03:54:02.663Z,100.00
2022-09-18T03:56:29.524Z,100.00
2022-09-18T03:58:56.152Z,100.00
2022-09-18T04:01:22.932Z,100.00
2022-09-18T04:03:50.185Z,100.00
2022-09-18T04:06:17.366Z,100.00
2022-09-18T04:08:43.981Z,100.00
2022-09-18T04:11:15.958Z,100.00
2022-09-18T04:13:42.704Z,100.00
2022-09-18T04:16:09.615Z,100.00
2022-09-18T04:18:38.831Z,100.00
2022-09-18T04:21:05.662Z,100.00
2022-09-18T04:23:35.515Z,100.00
2022-09-18T04:26:09.376Z,100.00
2022-09-18T04:28:39.075Z,100.00
2022-09-18T04:31:06.064Z,100.00
2022-09-18T04:33:35.049Z,100.00
2022-09-18T04:36:01.880Z,100.00
2022-09-18T04:38:29.568Z,100.00
2022-09-18T04:40:57.566Z,100.00
2022-09-18T04:43:25.076Z,100.00
2022-09-18T04:45:52.794Z,100.00
2022-09-18T04:48:20.301Z,100.00
2022-09-18T04:50:47.830Z,100.00
2022-09-18T04:53:15.438Z,100.00
2022-09-18T04:55:46.541Z,100.00
2022-09-18T04:58:15.108Z,100.00
2022-09-18T05:00:42.254Z,100.00
2022-09-18T05:03:09.582Z,100.00
2022-09-18T05:05:36.354Z,100.00
2022-09-18T05:08:03.670Z,100.00
2022-09-18T05:10:30.972Z,100.00
2022-09-18T05:13:00.669Z,100.00
2022-09-18T05:15:28.016Z,100.00
2022-09-18T05:18:02.247Z,100.00
2022-09-18T05:20:30.214Z,100.00
2022-09-18T05:22:57.653Z,100.00
2022-09-18T05:25:29.799Z,100.00
2022-09-18T05:27:58.637Z,100.00
2022-09-18T05:30:26.806Z,100.00
2022-09-18T05:33:02.243Z,100.00
2022-09-18T05:35:31.260Z,99.26
2022-09-18T05:37:58.183Z,97.88
2022-09-18T05:40:27.911Z,96.24
2022-09-18T05:42:57.762Z,96.20
2022-09-18T05:45:25.129Z,97.68
2022-09-18T05:48:03.664Z,97.46
2022-09-18T05:50:31.165Z,98.29
2022-09-18T05:53:09.796Z,97.61
2022-09-18T05:55:41.089Z,98.86
2022-09-18T05:58:14.896Z,97.82
2022-09-18T06:00:44.915Z,96.61
2022-09-18T06:03:13.843Z,95.54
2022-09-18T06:05:53.858Z,90.15
2022-09-18T06:08:21.921Z,88.84
2022-09-18T06:10:48.913Z,89.01
2022-09-18T06:13:18.227Z,90.65
2022-09-18T06:15:52.580Z,89.47
2022-09-18T06:18:21.926Z,90.59
2022-09-18T06:20:59.021Z,91.94
2022-09-18T06:23:27.231Z,90.04
2022-09-18T06:26:00.500Z,88.99
2022-09-18T06:28:28.115Z,89.81
2022-09-18T06:30:56.005Z,89.87
2022-09-18T06:33:24.283Z,90.41
2022-09-18T06:35:54.148Z,90.28
2022-09-18T06:38:21.006Z,89.09
2022-09-18T06:40:50.706Z,88.30
2022-09-18T06:43:20.414Z,86.98
2022-09-18T06:45:55.235Z,86.06
2022-09-18T06:48:29.782Z,87.70
2022-09-18T06:50:59.651Z,82.45
2022-09-18T06:53:26.961Z,83.90
2022-09-18T06:56:03.566Z,78.24
2022-09-18T06:58:30.475Z,79.46
2022-09-18T07:01:01.592Z,77.31
2022-09-18T07:03:29.629Z,74.16
2022-09-18T07:05:56.329Z,73.02
2022-09-18T07:08:25.354Z,73.32
2022-09-18T07:10:52.444Z,73.84
2022-09-18T07:13:19.147Z,72.59
2022-09-18T07:15:48.483Z,72.02
2022-09-18T07:18:15.160Z,71.36
2022-09-18T07:20:41.847Z,70.33
2022-09-18T07:23:09.519Z,71.80
2022-09-18T07:25:36.355Z,70.53
2022-09-18T07:28:11.313Z,71.23
2022-09-18T07:30:40.212Z,70.84
2022-09-18T07:33:10.010Z,70.88
2022-09-18T07:35:39.219Z,69.81
2022-09-18T07:38:07.474Z,69.22
2022-09-18T07:40:34.992Z,72.94
2022-09-18T07:43:03.271Z,72.48
2022-09-18T07:45:30.529Z,73.28
2022-09-18T07:47:57.425Z,70.96
2022-09-18T07:50:24.057Z,70.26
2022-09-18T07:52:56.514Z,69.55
2022-09-18T07:55:24.414Z,68.96
2022-09-18T07:58:01.915Z,67.86
2022-09-18T08:00:35.130Z,65.74
2022-09-18T08:03:21.880Z,66.83
2022-09-18T08:05:50.529Z,64.80
2022-09-18T08:08:17.233Z,66.92
2022-09-18T08:10:45.248Z,65.31
2022-09-18T08:13:14.235Z,67.26
2022-09-18T08:15:46.007Z,65.73
2022-09-18T08:18:12.738Z,65.85
2022-09-18T08:20:39.450Z,65.82
2022-09-18T08:23:11.589Z,66.24
2022-09-18T08:25:38.726Z,67.51
2022-09-18T08:28:07.216Z,64.05
2022-09-18T08:30:35.343Z,63.74
2022-09-18T08:33:06.815Z,64.55
2022-09-18T08:35:37.927Z,64.70
2022-09-18T08:38:04.937Z,64.47
2022-09-18T08:41:01.838Z,58.32
2022-09-18T08:43:28.488Z,59.37
2022-09-18T08:46:12.066Z,57.40
2022-09-18T08:48:46.299Z,57.56
2022-09-18T08:51:15.899Z,58.52
2022-09-18T08:53:48.686Z,57.32
2022-09-18T08:56:24.794Z,53.30
2022-09-18T08:59:06.296Z,53.04
2022-09-18T09:01:45.867Z,52.99
2022-09-18T09:04:25.159Z,51.92
2022-09-18T09:07:29.979Z,53.13
2022-09-18T09:10:24.164Z,54.43
2022-09-18T09:13:19.152Z,50.48
2022-09-18T09:16:13.840Z,50.46
2022-09-18T09:19:08.303Z,52.04
2022-09-18T09:22:06.160Z,51.67
2022-09-18T09:24:34.201Z,51.56
2022-09-18T09:27:10.705Z,48.87
2022-09-18T09:29:43.957Z,50.21
2022-09-18T09:32:28.112Z,49.76
2022-09-18T09:35:05.313Z,49.90
2022-09-18T09:37:43.714Z,49.99
2022-09-18T09:40:37.721Z,49.01
2022-09-18T09:43:16.733Z,51.41
2022-09-18T09:45:52.057Z,50.23
2022-09-18T09:48:21.505Z,50.57
2022-09-18T09:50:59.515Z,46.21
2022-09-18T09:53:27.993Z,48.90
2022-09-18T09:58:59.263Z,50.89
2022-09-18T10:01:35.801Z,46.85
2022-09-18T10:04:15.769Z,47.11
2022-09-18T10:07:23.948Z,46.77
2022-09-18T10:10:03.478Z,44.87
2022-09-18T10:12:50.626Z,44.70
2022-09-18T10:15:25.851Z,45.81
2022-09-18T10:17:57.083Z,43.03
2022-09-18T10:20:30.082Z,39.95
2022-09-18T10:23:06.156Z,40.50
2022-09-18T10:26:02.326Z,38.22
2022-09-18T10:28:29.776Z,38.67
2022-09-18T10:31:14.656Z,38.30
2022-09-18T10:33:45.634Z,43.29
2022-09-18T10:36:41.602Z,49.68
2022-09-18T10:39:37.676Z,52.03
2022-09-18T10:42:06.392Z,45.97
2022-09-18T10:44:50.978Z,38.36
2022-09-18T10:47:18.918Z,41.05
2022-09-18T10:49:51.685Z,37.05
2022-09-18T10:52:32.625Z,38.00
2022-09-18T10:55:06.425Z,36.01
2022-09-18T10:57:40.348Z,36.10
2022-09-18T11:00:13.195Z,36.45
2022-09-18T11:02:44.844Z,36.59
2022-09-18T11:05:20.179Z,37.28
2022-09-18T11:08:00.269Z,34.82
2022-09-18T11:10:33.263Z,35.48
2022-09-18T11:13:02.871Z,36.48
2022-09-18T11:15:32.257Z,35.86
2022-09-18T11:18:06.544Z,37.74
2022-09-18T11:20:43.088Z,37.01
2022-09-18T11:23:20.885Z,36.15
2022-09-18T11:25:47.778Z,36.90
2022-09-18T11:28:23.495Z,35.17
2022-09-18T11:31:02.227Z,37.07
2022-09-18T11:33:52.969Z,36.53
2022-09-18T11:36:32.328Z,39.81
2022-09-18T11:39:01.813Z,39.22
2022-09-18T11:41:35.206Z,40.26
2022-09-18T11:44:15.327Z,38.30
2022-09-18T11:47:14.396Z,38.70
2022-09-18T11:52:44.029Z,40.15
2022-09-18T11:55:35.270Z,38.92
2022-09-18T11:58:10.085Z,39.48
2022-09-18T12:00:44.378Z,40.19
2022-09-18T12:03:27.299Z,40.61
2022-09-18T12:06:23.199Z,37.67
2022-09-18T12:08:54.224Z,36.71
2022-09-18T12:11:23.259Z,33.36
2022-09-18T12:14:20.580Z,33.20
2022-09-18T12:17:00.262Z,32.14
2022-09-18T12:19:40.625Z,30.38
2022-09-18T12:22:15.898Z,27.08
2022-09-18T12:24:42.661Z,26.36
2022-09-18T12:27:15.473Z,26.70
2022-09-18T12:29:50.589Z,24.99
2022-09-18T12:32:35.892Z,23.91
2022-09-18T12:35:12.898Z,23.34
2022-09-18T12:38:10.813Z,23.41
2022-09-18T12:40:56.794Z,22.85
2022-09-18T12:43:52.588Z,25.48
2022-09-18T12:47:00.323Z,27.33
2022-09-18T12:50:07.692Z,28.39
2022-09-18T12:53:09.045Z,30.72
2022-09-18T12:56:16.810Z,31.99
2022-09-18T12:59:11.120Z,33.19
2022-09-18T13:01:57.255Z,34.08
2022-09-18T13:04:30.745Z,34.67
2022-09-18T13:07:06.224Z,34.85
2022-09-18T13:09:58.765Z,36.35
2022-09-18T13:12:35.348Z,36.04
2022-09-18T13:15:10.413Z,37.60
2022-09-18T13:17:50.825Z,35.40
2022-09-18T13:20:30.990Z,35.12
2022-09-18T13:23:00.610Z,36.10
2022-09-18T13:25:37.741Z,37.61
2022-09-18T13:28:11.673Z,38.15
2022-09-18T13:30:38.865Z,36.69
2022-09-18T13:33:05.776Z,36.07
2022-09-18T13:35:35.680Z,35.98
2022-09-18T13:38:10.334Z,37.12
2022-09-18T13:40:40.966Z,37.49
2022-09-18T13:43:46.788Z,37.07
2022-09-18T13:46:50.482Z,36.82
2022-09-18T13:49:32.871Z,37.17
2022-09-18T13:52:37.980Z,36.41
2022-09-18T13:55:13.402Z,35.44
2022-09-18T13:57:43.397Z,37.16
2022-09-18T14:00:24.183Z,37.27
2022-09-18T14:03:12.850Z,38.20
2022-09-18T14:05:42.041Z,39.86
2022-09-18T14:08:24.307Z,39.21
2022-09-18T14:11:17.643Z,37.09
2022-09-18T14:13:54.630Z,38.14
2022-09-18T14:16:22.441Z,37.65
2022-09-18T14:18:49.154Z,38.14
2022-09-18T14:21:18.927Z,38.65
2022-09-18T14:23:50.467Z,38.11
2022-09-18T14:26:32.358Z,37.74
2022-09-18T14:32:22.555Z,37.37
2022-09-18T14:35:18.444Z,37.39
2022-09-18T14:37:45.690Z,37.83
2022-09-18T14:40:20.920Z,38.11
2022-09-18T14:42:48.736Z,38.93
2022-09-18T14:45:22.744Z,39.73
2022-09-18T14:47:51.550Z,37.68
2022-09-18T14:50:21.064Z,39.23
2022-09-18T14:52:47.832Z,38.51
2022-09-18T14:55:23.193Z,37.84
2022-09-18T14:57:59.168Z,40.33
2022-09-18T15:00:30.129Z,41.52
2022-09-18T15:03:20.544Z,40.58
2022-09-18T15:05:51.575Z,40.10
2022-09-18T15:08:26.499Z,40.92
2022-09-18T15:10:56.695Z,41.03
2022-09-18T15:13:24.265Z,42.34
2022-09-18T15:16:00.845Z,40.20
2022-09-18T15:18:30.874Z,41.74
2022-09-18T15:21:01.718Z,40.71
2022-09-18T15:23:32.675Z,41.63
2022-09-18T15:26:05.500Z,42.30
2022-09-18T15:28:36.322Z,41.46
2022-09-18T15:31:08.519Z,42.83
2022-09-18T15:33:38.280Z,41.55
2022-09-18T15:36:28.263Z,41.51
2022-09-18T15:38:57.431Z,42.63
2022-09-18T15:41:36.097Z,42.84
2022-09-18T15:44:03.695Z,42.18
2022-09-18T15:46:38.773Z,42.23
2022-09-18T15:49:29.693Z,42.53
2022-09-18T15:51:58.638Z,42.34
2022-09-18T15:54:27.278Z,43.05
2022-09-18T15:56:57.753Z,43.11
2022-09-18T15:59:32.308Z,43.28
2022-09-18T16:02:08.190Z,44.51
2022-09-18T16:04:35.922Z,43.98
2022-09-18T16:07:22.889Z,43.38
2022-09-18T16:09:52.916Z,43.28
2022-09-18T16:12:37.696Z,44.52
2022-09-18T16:15:25.595Z,44.86
2022-09-18T16:17:54.749Z,44.90
2022-09-18T16:20:23.411Z,44.83
2022-09-18T16:22:51.778Z,44.79
2022-09-18T16:25:21.820Z,44.74
2022-09-18T16:27:56.780Z,46.10
2022-09-18T16:30:24.365Z,46.20
2022-09-18T16:33:05.287Z,44.63
2022-09-18T16:35:31.873Z,45.61
2022-09-18T16:37:58.467Z,45.45
2022-09-18T16:40:27.622Z,46.60
2022-09-18T16:43:00.588Z,45.55
2022-09-18T16:45:28.953Z,46.71
2022-09-18T16:48:00.653Z,45.72
2022-09-18T16:50:27.994Z,45.56
2022-09-18T16:52:58.501Z,44.35
2022-09-18T16:55:29.357Z,45.48
2022-09-18T16:57:59.402Z,45.80
2022-09-18T17:00:26.207Z,45.44
2022-09-18T17:02:55.472Z,46.40
2022-09-18T17:05:22.123Z,46.82
2022-09-18T17:07:48.703Z,46.93
2022-09-18T17:10:15.596Z,46.68
2022-09-18T17:12:43.555Z,47.15
2022-09-18T17:15:10.624Z,46.01
2022-09-18T17:17:40.769Z,46.46
2022-09-18T17:20:16.076Z,46.15
2022-09-18T17:22:47.596Z,46.55
2022-09-18T17:25:15.370Z,45.46
2022-09-18T17:27:43.898Z,46.15
2022-09-18T17:30:12.178Z,46.06
2022-09-18T17:32:39.704Z,47.09
2022-09-18T17:35:06.894Z,45.70
2022-09-18T17:37:33.591Z,46.11
2022-09-18T17:40:01.625Z,45.72
2022-09-18T17:42:30.406Z,45.72
2022-09-18T17:44:59.834Z,45.55
2022-09-18T17:47:27.025Z,46.18
2022-09-18T17:49:54.308Z,45.89
2022-09-18T17:52:21.078Z,46.20
2022-09-18T17:54:49.066Z,45.91
2022-09-18T17:57:18.171Z,46.97
2022-09-18T17:59:45.143Z,45.98
2022-09-18T18:02:13.909Z,45.66
2022-09-18T18:04:40.582Z,47.07
2022-09-18T18:07:07.282Z,46.47
2022-09-18T18:09:36.443Z,45.39
2022-09-18T18:12:05.148Z,46.43
2022-09-18T18:14:32.176Z,46.24
2022-09-18T18:17:00.883Z,44.98
2022-09-18T18:19:30.693Z,46.33
2022-09-18T18:21:57.481Z,45.77
2022-09-18T18:24:24.319Z,46.04
2022-09-18T18:26:52.552Z,46.15
2022-09-18T18:29:19.699Z,45.88
2022-09-18T18:31:53.923Z,46.05
2022-09-18T18:34:22.194Z,45.99
2022-09-18T18:36:51.066Z,45.87
2022-09-18T18:39:21.331Z,45.20
2022-09-18T18:41:48.587Z,45.82
2022-09-18T18:44:18.571Z,44.42
2022-09-18T18:46:45.336Z,45.56
2022-09-18T18:49:15.044Z,45.59
2022-09-18T18:51:48.907Z,45.91
2022-09-18T18:54:23.169Z,45.27
2022-09-18T18:56:51.832Z,45.46
2022-09-18T18:59:25.592Z,45.35
2022-09-18T19:01:58.111Z,44.83
2022-09-18T19:04:25.930Z,46.20
2022-09-18T19:06:57.152Z,45.08
2022-09-18T19:09:30.958Z,45.26
2022-09-18T19:12:01.521Z,45.13
2022-09-18T19:14:36.289Z,44.44
2022-09-18T19:17:02.944Z,44.97
2022-09-18T19:19:32.177Z,45.11
2022-09-18T19:22:02.039Z,44.44
2022-09-18T19:24:30.115Z,44.86
2022-09-18T19:26:57.595Z,43.49
2022-09-18T19:29:24.411Z,43.89
2022-09-18T19:31:54.381Z,43.28
2022-09-18T19:34:22.638Z,42.46
2022-09-18T19:36:51.129Z,42.47
2022-09-18T19:39:24.686Z,41.35
2022-09-18T19:41:56.581Z,41.91
2022-09-18T19:44:47.204Z,42.94
2022-09-18T19:47:28.075Z,41.73
2022-09-18T19:49:59.555Z,40.91
2022-09-18T19:52:29.161Z,41.96
2022-09-18T19:54:57.665Z,41.37
2022-09-18T19:57:27.516Z,42.06
2022-09-18T19:59:58.616Z,42.24
2022-09-18T20:02:25.782Z,41.44
2022-09-18T20:05:02.036Z,42.06
2022-09-18T20:07:29.316Z,42.05
2022-09-18T20:09:56.029Z,41.61
2022-09-18T20:12:22.726Z,42.03
2022-09-18T20:14:52.100Z,41.42
2022-09-18T20:17:21.916Z,43.05
2022-09-18T20:19:48.570Z,42.76
2022-09-18T20:22:15.337Z,41.88
2022-09-18T20:24:42.140Z,41.86
2022-09-18T20:27:10.133Z,42.92
2022-09-18T20:29:37.736Z,41.93
2022-09-18T20:32:04.397Z,41.43
2022-09-18T20:34:31.056Z,41.61
2022-09-18T20:36:58.017Z,40.46
2022-09-18T20:39:24.755Z,40.43
2022-09-18T20:41:51.573Z,41.29
2022-09-18T20:44:19.640Z,42.39
2022-09-18T20:46:46.554Z,41.80
2022-09-18T20:49:17.601Z,43.79
2022-09-18T20:51:44.361Z,41.46
2022-09-18T20:54:14.353Z,43.34
2022-09-18T20:56:43.643Z,42.46
2022-09-18T20:59:12.400Z,48.02
2022-09-18T21:01:47.192Z,50.49
2022-09-18T21:04:19.560Z,51.35
2022-09-18T21:06:49.142Z,51.63
2022-09-18T21:09:16.055Z,51.76
2022-09-18T21:11:45.014Z,51.01
2022-09-18T21:14:15.469Z,52.09
2022-09-18T21:16:45.604Z,51.72
2022-09-18T21:19:14.063Z,52.54
2022-09-18T21:21:41.326Z,52.64
2022-09-18T21:24:09.478Z,53.19
2022-09-18T21:26:43.507Z,52.87
2022-09-18T21:29:18.417Z,52.16
2022-09-18T21:31:46.625Z,52.16
2022-09-18T21:34:15.921Z,51.40
2022-09-18T21:36:46.280Z,52.27
2022-09-18T21:39:17.689Z,52.84
2022-09-18T21:41:47.618Z,53.53
2022-09-18T21:44:16.645Z,55.57
2022-09-18T21:46:51.356Z,55.29
2022-09-18T21:49:19.246Z,54.40
2022-09-18T21:51:46.956Z,54.85
2022-09-18T21:54:19.831Z,54.36
2022-09-18T21:56:57.420Z,55.98
2022-09-18T21:59:27.342Z,57.73
2022-09-18T22:01:57.864Z,58.98
2022-09-18T22:04:29.132Z,60.36
2022-09-18T22:06:57.383Z,59.50
2022-09-18T22:09:38.977Z,59.95
2022-09-18T22:12:09.866Z,59.33
2022-09-18T22:14:38.356Z,59.00
2022-09-18T22:17:07.786Z,58.81
2022-09-18T22:19:39.304Z,58.76
2022-09-18T22:22:08.029Z,58.53
2022-09-18T22:24:34.713Z,56.74
2022-09-18T22:27:06.058Z,57.47
2022-09-18T22:29:34.844Z,58.41
2022-09-18T22:32:02.000Z,57.07
2022-09-18T22:34:31.141Z,57.79
2022-09-18T22:37:02.349Z,57.31
2022-09-18T22:39:29.559Z,58.58
2022-09-18T22:41:56.559Z,58.92
2022-09-18T22:44:23.510Z,57.97
2022-09-18T22:46:52.587Z,57.76
2022-09-18T22:49:22.858Z,59.24
2022-09-18T22:51:50.832Z,58.64
2022-09-18T22:54:28.522Z,58.79
2022-09-18T22:56:56.961Z,57.11
2022-09-18T22:59:27.211Z,54.98
2022-09-18T23:02:00.796Z,53.22
2022-09-18T23:04:29.939Z,53.02
2022-09-18T23:06:58.001Z,51.19
2022-09-18T23:09:30.666Z,52.96
2022-09-18T23:11:58.129Z,52.96
2022-09-18T23:14:28.147Z,52.79
2022-09-18T23:17:21.913Z,52.45
2022-09-18T23:19:48.512Z,53.99
2022-09-18T23:22:22.157Z,53.50
2022-09-18T23:24:52.182Z,52.24
2022-09-18T23:27:20.611Z,52.37
2022-09-18T23:29:48.906Z,53.01
2022-09-18T23:32:15.519Z,53.43
2022-09-18T23:34:42.324Z,52.13
2022-09-18T23:37:09.118Z,52.13
2022-09-18T23:39:35.813Z,51.95
2022-09-18T23:42:05.885Z,51.57
2022-09-18T23:44:33.111Z,52.81
2022-09-18T23:47:02.362Z,52.67
2022-09-18T23:49:30.260Z,51.03
2022-09-18T23:51:57.310Z,52.31
2022-09-18T23:54:28.770Z,52.77
2022-09-18T23:56:55.649Z,52.62
2022-09-18T23:59:24.707Z,53.08
